Austin Straubel International, WI

10:35 AM CDT on July 24, 2016 (GMT -0500)
Austin Straubel International | | Change Station

Elev 686 ft 44.48 °N, 88.14 °W | Updated 14 minutes ago

Overcast
Overcast
74 °F
Feels Like 74 °F
N
9
Wind Variable Wind from SSE

Today
High -- | Low -- °F
--% Chance of Precip.
Yesterday
High -- | Low -- °F
Precip. -- in
Pressure 29.82 in
Visibility 10.0 miles
Clouds Scattered Clouds 500 ft
Overcast 1200 ft
Dew Point 74 °F
Humidity 100%
Rainfall 0.52 in
Snow Depth Not available.
5:31 AM 8:26 PM
Waning Gibbous, 75% visible
SPECI KGRB 241521Z 15008KT 10SM SCT005 OVC012 23/23 A2982 RMK AO2 T02330233
Pressure 29.82 in
Visibility 10.0 miles
Clouds Scattered Clouds 500 ft
Overcast 1200 ft
Dew Point 74 °F
Humidity 100%
Rainfall 0.52 in
Snow Depth Not available.
5:31 AM 8:26 PM
Waning Gibbous, 75% visible
SPECI KGRB 241521Z 15008KT 10SM SCT005 OVC012 23/23 A2982 RMK AO2 T02330233

10-Day Weather Forecast

Almanac

Astronomy

Jul. 24, 2016 Rise Set
Actual Time
Civil Twilight
Nautical Twilight
Astronomical Twilight
Moon
Length of Visible Light
Length of Day
Tomorrow will be .
, % of the Moon is Illuminated

Today's Extremes

State Highs State Lows

Community

WunderPhotos

Upload Photos

1,927,092 photos uploaded!

WunderBlog® & News

Nearby

Air Quality

  Air Quality AQ Index Pollutant
Not available.

Snow Depth

Station Depth Elevation

Earthquake Activity

City Distance Mag. Time & Date
Minimum magnitude displayed is 2.5.

Coastal Water Temperatures

Place Temperature

Stations

Nearby Weather Stations

Station Location Temp. Windchill Dew Point Humidity Wind Precip. Elev Updated Type
                   

Watches & Warnings

There are currently no watches in effect.